createdAt,value
2018-10-07T00:01:42.640Z,14.10
2018-10-07T00:04:11.136Z,14.30
2018-10-07T00:06:39.655Z,14.40
2018-10-07T00:09:08.756Z,14.30
2018-10-07T00:11:37.617Z,14.20
2018-10-07T00:14:06.197Z,14.10
2018-10-07T00:16:34.772Z,14.00
2018-10-07T00:19:03.329Z,14.00
2018-10-07T00:21:31.848Z,14.10
2018-10-07T00:24:00.363Z,14.10
2018-10-07T00:26:28.920Z,14.10
2018-10-07T00:28:57.481Z,14.20
2018-10-07T00:31:26.028Z,14.40
2018-10-07T00:33:54.548Z,14.50
2018-10-07T00:36:23.086Z,14.60
2018-10-07T00:38:51.609Z,14.70
2018-10-07T00:41:20.147Z,14.70
2018-10-07T00:43:48.680Z,14.60
2018-10-07T00:46:17.228Z,14.50
2018-10-07T00:48:45.784Z,14.50
2018-10-07T00:51:14.294Z,14.50
2018-10-07T00:53:42.796Z,14.50
2018-10-07T00:56:11.330Z,14.50
2018-10-07T00:58:39.841Z,14.50
2018-10-07T01:01:08.361Z,14.50
2018-10-07T01:03:36.896Z,14.50
2018-10-07T01:06:05.413Z,14.40
2018-10-07T01:08:34.067Z,14.40
2018-10-07T01:11:02.590Z,14.40
2018-10-07T01:13:31.105Z,14.30
2018-10-07T01:15:59.641Z,14.30
2018-10-07T01:18:28.156Z,14.30
2018-10-07T01:20:56.736Z,14.30
2018-10-07T01:23:25.248Z,14.20
2018-10-07T01:25:53.838Z,14.10
2018-10-07T01:28:22.408Z,14.00
2018-10-07T01:30:50.916Z,14.00
2018-10-07T01:33:19.442Z,13.90
2018-10-07T01:35:47.972Z,13.90
2018-10-07T01:38:16.484Z,14.10
2018-10-07T01:40:44.998Z,14.20
2018-10-07T01:43:13.508Z,14.20
2018-10-07T01:45:42.016Z,14.10
2018-10-07T01:48:10.525Z,14.00
2018-10-07T01:50:39.060Z,13.90
2018-10-07T01:53:07.592Z,13.80
2018-10-07T01:55:36.121Z,14.00
2018-10-07T01:58:04.663Z,14.00
2018-10-07T02:00:33.169Z,14.10
2018-10-07T02:03:01.733Z,14.20
2018-10-07T02:05:30.237Z,14.20
2018-10-07T02:07:58.762Z,14.10
2018-10-07T02:10:27.289Z,14.00
2018-10-07T02:12:55.846Z,13.90
2018-10-07T02:15:24.385Z,13.70
2018-10-07T02:17:52.912Z,13.50
2018-10-07T02:20:21.408Z,13.40
2018-10-07T02:22:49.932Z,13.30
2018-10-07T02:25:18.443Z,13.30
2018-10-07T02:27:47.017Z,13.30
2018-10-07T02:30:15.546Z,13.30
2018-10-07T02:32:44.260Z,13.30
2018-10-07T02:35:12.824Z,13.30
2018-10-07T02:37:41.339Z,13.30
2018-10-07T02:40:09.888Z,13.30
2018-10-07T02:42:38.408Z,13.20
2018-10-07T02:45:07.065Z,13.10
2018-10-07T02:47:35.607Z,13.00
2018-10-07T02:50:12.228Z,12.90
2018-10-07T02:52:46.193Z,12.90
2018-10-07T02:55:14.795Z,12.90
2018-10-07T02:57:43.355Z,12.90
2018-10-07T03:00:11.859Z,12.90
2018-10-07T03:02:40.444Z,12.90
2018-10-07T03:05:08.993Z,12.90
2018-10-07T03:07:37.563Z,12.90
2018-10-07T03:10:06.123Z,13.00
2018-10-07T03:12:34.731Z,13.00
2018-10-07T03:15:03.325Z,13.00
2018-10-07T03:17:32.356Z,13.00
2018-10-07T03:20:01.052Z,13.00
2018-10-07T03:22:30.028Z,13.10
2018-10-07T03:24:58.543Z,13.10
2018-10-07T03:27:27.086Z,13.10
2018-10-07T03:29:55.813Z,13.00
2018-10-07T03:32:24.413Z,13.00
2018-10-07T03:34:52.947Z,12.90
2018-10-07T03:37:21.457Z,12.80
2018-10-07T03:39:50.005Z,12.80
2018-10-07T03:42:18.549Z,12.80
2018-10-07T03:44:47.100Z,12.70
2018-10-07T03:47:15.652Z,12.70
2018-10-07T03:49:44.159Z,12.70
2018-10-07T03:52:12.705Z,12.70
2018-10-07T03:54:41.224Z,12.70
2018-10-07T03:57:09.782Z,12.70
2018-10-07T03:59:38.363Z,12.70
2018-10-07T04:02:07.051Z,12.80
2018-10-07T04:04:35.580Z,12.70
2018-10-07T04:07:04.143Z,12.80
2018-10-07T04:09:32.660Z,12.70
2018-10-07T04:12:01.151Z,12.70
2018-10-07T04:14:29.678Z,12.70
2018-10-07T04:16:58.167Z,12.60
2018-10-07T04:19:26.692Z,12.50
2018-10-07T04:21:57.308Z,12.40
2018-10-07T04:24:27.583Z,12.50
2018-10-07T04:26:56.165Z,12.60
2018-10-07T04:29:24.752Z,12.80
2018-10-07T04:31:53.309Z,12.70
2018-10-07T04:34:21.834Z,12.70
2018-10-07T04:36:50.348Z,12.60
2018-10-07T04:39:18.849Z,12.50
2018-10-07T04:41:47.376Z,12.40
2018-10-07T04:44:15.872Z,12.50
2018-10-07T04:46:44.403Z,12.50
2018-10-07T04:49:12.879Z,12.40
2018-10-07T04:51:41.434Z,12.40
2018-10-07T04:54:09.950Z,12.40
2018-10-07T04:56:38.460Z,12.50
2018-10-07T04:59:07.013Z,12.60
2018-10-07T05:01:35.524Z,12.50
2018-10-07T05:04:04.081Z,12.50
2018-10-07T05:06:34.699Z,12.50
2018-10-07T05:09:06.248Z,12.40
2018-10-07T05:11:34.831Z,12.40
2018-10-07T05:14:04.601Z,12.40
2018-10-07T05:16:35.519Z,12.40
2018-10-07T05:19:04.146Z,12.40
2018-10-07T05:21:32.697Z,12.40
2018-10-07T05:24:01.192Z,12.40
2018-10-07T05:26:29.989Z,12.40
2018-10-07T05:28:58.540Z,12.40
2018-10-07T05:31:27.047Z,12.40
2018-10-07T05:33:55.690Z,12.40
2018-10-07T05:36:24.323Z,12.30
2018-10-07T05:38:52.833Z,12.20
2018-10-07T05:41:21.335Z,12.20
2018-10-07T05:43:50.140Z,12.20
2018-10-07T05:46:18.637Z,12.20
2018-10-07T05:48:47.159Z,12.20
2018-10-07T05:51:15.696Z,12.30
2018-10-07T05:53:44.211Z,12.40
2018-10-07T05:56:12.716Z,12.40
2018-10-07T05:58:41.372Z,12.50
2018-10-07T06:01:14.471Z,12.50
2018-10-07T06:03:51.143Z,12.50
2018-10-07T06:06:19.696Z,12.50
2018-10-07T06:08:48.347Z,12.50
2018-10-07T06:11:16.909Z,12.50
2018-10-07T06:13:45.481Z,12.50
2018-10-07T06:16:13.993Z,12.50
2018-10-07T06:18:42.517Z,12.50
2018-10-07T06:21:11.080Z,12.50
2018-10-07T06:23:39.608Z,12.50
2018-10-07T06:26:08.220Z,12.50
2018-10-07T06:28:36.779Z,12.60
2018-10-07T06:31:05.375Z,12.60
2018-10-07T06:33:33.884Z,12.60
2018-10-07T06:36:02.433Z,12.60
2018-10-07T06:38:31.020Z,12.70
2018-10-07T06:40:59.573Z,12.70
2018-10-07T06:43:28.108Z,12.80
2018-10-07T06:45:56.720Z,12.80
2018-10-07T06:48:25.246Z,12.80
2018-10-07T06:50:53.781Z,12.80
2018-10-07T06:53:22.332Z,12.80
2018-10-07T06:55:50.906Z,12.90
2018-10-07T06:58:19.424Z,12.90
2018-10-07T07:00:47.951Z,12.90
2018-10-07T07:03:16.455Z,13.00
2018-10-07T07:05:44.990Z,13.00
2018-10-07T07:08:13.504Z,13.00
2018-10-07T07:10:42.047Z,13.00
2018-10-07T07:13:10.620Z,13.00
2018-10-07T07:15:39.109Z,13.10
2018-10-07T07:18:07.605Z,13.20
2018-10-07T07:20:36.138Z,13.30
2018-10-07T07:23:04.651Z,13.40
2018-10-07T07:25:33.163Z,13.40
2018-10-07T07:28:01.682Z,13.40
2018-10-07T07:30:30.228Z,13.50
2018-10-07T07:32:58.785Z,13.60
2018-10-07T07:35:27.299Z,13.70
2018-10-07T07:37:56.532Z,13.80
2018-10-07T07:40:25.142Z,13.90
2018-10-07T07:42:53.680Z,13.90
2018-10-07T07:45:22.350Z,14.00
2018-10-07T07:47:50.885Z,14.10
2018-10-07T07:50:19.395Z,14.10
2018-10-07T07:52:47.887Z,14.20
2018-10-07T07:55:16.397Z,14.20
2018-10-07T07:57:44.901Z,14.30
2018-10-07T08:00:13.436Z,14.30
2018-10-07T08:02:41.952Z,14.40
2018-10-07T08:05:10.527Z,14.40
2018-10-07T08:07:39.071Z,14.60
2018-10-07T08:10:07.623Z,14.60
2018-10-07T08:12:36.156Z,14.70
2018-10-07T08:15:04.854Z,14.90
2018-10-07T08:17:33.467Z,14.90
2018-10-07T08:20:01.978Z,14.90
2018-10-07T08:22:30.523Z,15.00
2018-10-07T08:24:59.040Z,15.10
2018-10-07T08:27:28.427Z,15.20
2018-10-07T08:29:56.976Z,15.30
2018-10-07T08:32:25.521Z,15.30
2018-10-07T08:34:54.016Z,15.30
2018-10-07T08:37:22.555Z,15.40
2018-10-07T08:39:51.416Z,15.40
2018-10-07T08:42:19.989Z,15.50
2018-10-07T08:44:48.528Z,15.50
2018-10-07T08:47:17.044Z,15.60
2018-10-07T08:49:45.578Z,15.70
2018-10-07T08:52:14.099Z,15.80
2018-10-07T08:54:42.601Z,15.80
2018-10-07T08:57:11.116Z,16.00
2018-10-07T08:59:39.619Z,16.10
2018-10-07T09:02:08.171Z,16.20
2018-10-07T09:04:36.715Z,16.30
2018-10-07T09:07:05.214Z,16.40
2018-10-07T09:09:33.757Z,16.50
2018-10-07T09:12:02.586Z,16.60
2018-10-07T09:14:31.126Z,16.70
2018-10-07T09:16:59.646Z,16.80
2018-10-07T09:19:28.184Z,16.90
2018-10-07T09:21:56.675Z,17.10
2018-10-07T09:24:25.200Z,17.30
2018-10-07T09:26:53.709Z,17.60
2018-10-07T09:29:22.304Z,17.80
2018-10-07T09:31:50.823Z,18.00
2018-10-07T09:34:19.372Z,18.40
2018-10-07T09:36:47.878Z,18.70
2018-10-07T09:39:16.451Z,19.00
2018-10-07T09:41:44.900Z,19.20
2018-10-07T09:44:13.399Z,19.30
2018-10-07T09:46:41.996Z,19.60
2018-10-07T09:49:10.584Z,19.70
2018-10-07T09:51:39.180Z,19.80
2018-10-07T09:54:07.714Z,19.90
2018-10-07T09:56:36.253Z,19.80
2018-10-07T09:59:04.774Z,19.80
2018-10-07T10:01:33.313Z,19.90
2018-10-07T10:04:01.899Z,19.80
2018-10-07T10:06:30.398Z,19.70
2018-10-07T10:08:58.894Z,19.60
2018-10-07T10:11:27.408Z,19.50
2018-10-07T10:13:55.916Z,19.50
2018-10-07T10:16:40.063Z,19.40
2018-10-07T10:19:12.108Z,19.30
2018-10-07T10:21:45.416Z,19.30
2018-10-07T10:24:24.420Z,19.30
2018-10-07T10:29:08.584Z,19.20
2018-10-07T10:31:55.887Z,19.10
2018-10-07T10:36:35.544Z,19.00
2018-10-07T10:39:12.183Z,19.00
2018-10-07T10:42:25.053Z,19.00
2018-10-07T10:44:56.636Z,19.00
2018-10-07T10:47:27.537Z,19.00
2018-10-07T10:50:08.188Z,19.10
2018-10-07T10:52:47.420Z,19.20
2018-10-07T10:55:42.421Z,19.20
2018-10-07T10:59:18.572Z,19.30
2018-10-07T11:02:56.604Z,19.40
2018-10-07T11:05:35.165Z,19.40
2018-10-07T11:08:44.300Z,19.60
2018-10-07T11:11:20.017Z,19.80
2018-10-07T11:13:55.982Z,20.10
2018-10-07T11:17:14.375Z,20.40
2018-10-07T11:19:53.892Z,20.90
2018-10-07T11:24:38.133Z,21.00
2018-10-07T11:27:53.053Z,21.10
2018-10-07T11:32:39.652Z,21.50
2018-10-07T11:35:21.461Z,21.00
2018-10-07T11:38:10.850Z,20.00
2018-10-07T11:40:51.446Z,19.80
2018-10-07T11:43:54.589Z,19.60
2018-10-07T11:47:31.247Z,19.40
2018-10-07T11:50:07.573Z,19.40
2018-10-07T11:52:48.578Z,19.40
2018-10-07T11:55:17.053Z,19.40
2018-10-07T11:57:45.556Z,19.30
2018-10-07T12:00:14.077Z,19.10
2018-10-07T12:02:42.677Z,18.90
2018-10-07T12:05:11.180Z,18.90
2018-10-07T12:07:39.744Z,18.80
2018-10-07T12:10:08.494Z,18.80
2018-10-07T12:12:37.007Z,18.90
2018-10-07T12:15:05.583Z,18.90
2018-10-07T12:17:34.180Z,19.00
2018-10-07T12:20:02.636Z,19.00
2018-10-07T12:22:31.167Z,19.00
2018-10-07T12:24:59.700Z,19.10
2018-10-07T12:27:28.261Z,19.10
2018-10-07T12:29:56.763Z,19.10
2018-10-07T12:32:25.292Z,19.10
2018-10-07T12:34:53.811Z,19.00
2018-10-07T12:37:22.808Z,19.00
2018-10-07T12:39:51.380Z,19.00
2018-10-07T12:42:19.895Z,18.90
2018-10-07T12:44:48.432Z,18.90
2018-10-07T12:47:17.007Z,18.80
2018-10-07T12:49:45.532Z,18.90
2018-10-07T12:52:14.016Z,18.80
2018-10-07T12:54:42.494Z,18.80
2018-10-07T12:57:11.040Z,18.80
2018-10-07T12:59:39.528Z,18.80
2018-10-07T13:02:08.087Z,18.80
2018-10-07T13:04:36.598Z,18.90
2018-10-07T13:07:05.447Z,18.90
2018-10-07T13:09:33.962Z,18.90
2018-10-07T13:12:02.525Z,18.90
2018-10-07T13:14:31.089Z,18.90
2018-10-07T13:16:59.653Z,18.80
2018-10-07T13:19:28.167Z,18.80
2018-10-07T13:21:56.667Z,18.70
2018-10-07T13:24:25.199Z,18.60
2018-10-07T13:26:53.705Z,18.60
2018-10-07T13:29:22.624Z,18.50
2018-10-07T13:31:51.164Z,18.40
2018-10-07T13:34:19.685Z,18.30
2018-10-07T13:36:48.187Z,18.30
2018-10-07T13:39:16.685Z,18.30
2018-10-07T13:41:45.225Z,18.40
2018-10-07T13:44:13.778Z,18.40
2018-10-07T13:46:42.339Z,18.40
2018-10-07T13:49:10.873Z,18.40
2018-10-07T13:51:39.392Z,18.50
2018-10-07T13:54:07.911Z,18.60
2018-10-07T13:56:36.441Z,18.60
2018-10-07T13:59:04.967Z,18.70
2018-10-07T14:01:33.478Z,18.80
2018-10-07T14:04:02.058Z,19.00
2018-10-07T14:06:30.547Z,19.20
2018-10-07T14:08:59.054Z,19.40
2018-10-07T14:11:27.567Z,19.40
2018-10-07T14:13:56.068Z,19.40
2018-10-07T14:16:24.586Z,19.50
2018-10-07T14:18:53.092Z,19.50
2018-10-07T14:21:21.568Z,19.50
2018-10-07T14:23:50.134Z,19.30
2018-10-07T14:26:18.661Z,19.30
2018-10-07T14:28:47.175Z,19.20
2018-10-07T14:31:15.688Z,19.20
2018-10-07T14:33:44.217Z,19.20
2018-10-07T14:36:12.766Z,19.20
2018-10-07T14:38:41.328Z,19.20
2018-10-07T14:41:09.836Z,19.20
2018-10-07T14:43:38.428Z,19.20
2018-10-07T14:46:06.996Z,19.20
2018-10-07T14:48:35.860Z,19.20
2018-10-07T14:51:04.376Z,19.20
2018-10-07T14:53:32.905Z,19.30
2018-10-07T14:56:01.400Z,19.20
2018-10-07T14:58:29.893Z,19.20
2018-10-07T15:00:58.459Z,19.10
2018-10-07T15:03:26.956Z,19.00
2018-10-07T15:05:55.480Z,18.90
2018-10-07T15:08:24.004Z,18.90
2018-10-07T15:10:52.497Z,18.90
2018-10-07T15:13:21.039Z,19.00
2018-10-07T15:15:49.527Z,19.00
2018-10-07T15:18:18.016Z,19.00
2018-10-07T15:20:46.521Z,19.00
2018-10-07T15:23:15.062Z,19.00
2018-10-07T15:25:43.555Z,18.90
2018-10-07T15:28:12.064Z,18.90
2018-10-07T15:30:40.598Z,18.90
2018-10-07T15:33:09.137Z,18.80
2018-10-07T15:35:37.679Z,18.70
2018-10-07T15:38:06.173Z,18.70
2018-10-07T15:40:34.671Z,18.50
2018-10-07T15:43:03.211Z,18.50
2018-10-07T15:45:31.748Z,18.30
2018-10-07T15:48:00.280Z,18.10
2018-10-07T15:50:28.823Z,17.90
2018-10-07T15:52:57.320Z,17.70
2018-10-07T15:55:25.828Z,17.60
2018-10-07T15:57:54.336Z,17.40
2018-10-07T16:00:22.836Z,17.30
2018-10-07T16:02:51.316Z,17.20
2018-10-07T16:05:19.826Z,17.20
2018-10-07T16:07:48.329Z,17.20
2018-10-07T16:10:16.848Z,17.20
2018-10-07T16:12:45.362Z,17.20
2018-10-07T16:15:13.865Z,17.20
2018-10-07T16:17:42.356Z,17.20
2018-10-07T16:20:10.844Z,17.20
2018-10-07T16:22:39.372Z,17.10
2018-10-07T16:25:07.936Z,17.00
2018-10-07T16:27:36.995Z,16.90
2018-10-07T16:30:05.558Z,16.70
2018-10-07T16:32:34.084Z,16.70
2018-10-07T16:35:02.608Z,16.70
2018-10-07T16:37:31.147Z,16.60
2018-10-07T16:39:59.657Z,16.60
2018-10-07T16:42:28.210Z,16.60
2018-10-07T16:44:56.728Z,16.60
2018-10-07T16:47:25.257Z,16.60
2018-10-07T16:49:53.853Z,16.60
2018-10-07T16:52:22.386Z,16.60
2018-10-07T16:54:50.899Z,16.60
2018-10-07T16:57:19.425Z,16.50
2018-10-07T16:59:47.965Z,16.40
2018-10-07T17:02:16.463Z,16.50
2018-10-07T17:04:45.002Z,16.40
2018-10-07T17:07:13.520Z,16.40
2018-10-07T17:09:42.024Z,16.40
2018-10-07T17:12:10.548Z,16.30
2018-10-07T17:14:39.089Z,16.30
2018-10-07T17:17:07.580Z,16.10
2018-10-07T17:19:36.153Z,16.10
2018-10-07T17:22:04.651Z,16.00
2018-10-07T17:24:33.143Z,15.90
2018-10-07T17:27:01.674Z,15.70
2018-10-07T17:29:30.190Z,15.70
2018-10-07T17:31:58.741Z,15.70
2018-10-07T17:34:27.306Z,15.70
2018-10-07T17:36:55.946Z,15.70
2018-10-07T17:39:24.472Z,15.70
2018-10-07T17:41:53.015Z,15.70
2018-10-07T17:44:21.531Z,15.70
2018-10-07T17:46:50.096Z,15.60
2018-10-07T17:49:18.638Z,15.60
2018-10-07T17:51:47.180Z,15.40
2018-10-07T17:54:15.713Z,15.30
2018-10-07T17:56:44.260Z,15.30
2018-10-07T17:59:12.755Z,15.30
2018-10-07T18:01:41.273Z,15.30
2018-10-07T18:04:09.793Z,15.30
2018-10-07T18:06:38.323Z,15.10
2018-10-07T18:09:07.988Z,15.10
2018-10-07T18:11:36.473Z,14.90
2018-10-07T18:14:05.085Z,14.80
2018-10-07T18:16:33.626Z,14.70
2018-10-07T18:19:02.152Z,14.60
2018-10-07T18:21:30.685Z,14.60
2018-10-07T18:23:59.167Z,14.60
2018-10-07T18:26:27.755Z,14.60
2018-10-07T18:28:56.271Z,14.50
2018-10-07T18:31:24.772Z,14.50
2018-10-07T18:33:53.308Z,14.50
2018-10-07T18:36:21.841Z,14.40
2018-10-07T18:38:50.660Z,14.40
2018-10-07T18:41:19.155Z,14.30
2018-10-07T18:43:47.716Z,14.20
2018-10-07T18:46:16.232Z,14.10
2018-10-07T18:48:44.833Z,14.10
2018-10-07T18:51:14.932Z,14.10
2018-10-07T18:53:43.468Z,14.10
2018-10-07T18:56:11.980Z,14.10
2018-10-07T18:58:40.488Z,14.00
2018-10-07T19:01:09.029Z,14.00
2018-10-07T19:03:37.588Z,14.00
2018-10-07T19:06:06.172Z,14.00
2018-10-07T19:08:34.787Z,14.00
2018-10-07T19:11:03.278Z,14.00
2018-10-07T19:13:31.824Z,13.80
2018-10-07T19:16:00.375Z,13.80
2018-10-07T19:18:28.875Z,13.70
2018-10-07T19:20:57.432Z,13.70
2018-10-07T19:23:25.905Z,13.70
2018-10-07T19:25:54.460Z,13.70
2018-10-07T19:28:22.976Z,13.70
2018-10-07T19:30:51.500Z,13.50
2018-10-07T19:33:20.042Z,13.40
2018-10-07T19:35:48.575Z,13.30
2018-10-07T19:38:17.164Z,13.20
2018-10-07T19:40:45.665Z,13.10
2018-10-07T19:43:14.209Z,13.00
2018-10-07T19:45:42.723Z,12.90
2018-10-07T19:48:11.269Z,12.90
2018-10-07T19:50:39.880Z,12.80
2018-10-07T19:53:08.368Z,12.80
2018-10-07T19:55:36.876Z,12.70
2018-10-07T19:58:05.460Z,12.60
2018-10-07T20:00:33.980Z,12.50
2018-10-07T20:03:02.502Z,12.50
2018-10-07T20:05:31.000Z,12.50
2018-10-07T20:07:59.536Z,12.40
2018-10-07T20:10:28.079Z,12.30
2018-10-07T20:12:56.648Z,12.30
2018-10-07T20:15:25.126Z,12.20
2018-10-07T20:17:53.643Z,12.20
2018-10-07T20:20:22.163Z,12.20
2018-10-07T20:22:50.751Z,12.20
2018-10-07T20:25:19.253Z,12.10
2018-10-07T20:27:47.777Z,12.10
2018-10-07T20:30:16.328Z,12.10
2018-10-07T20:32:44.853Z,12.10
2018-10-07T20:35:13.409Z,12.20
2018-10-07T20:37:41.907Z,12.20
2018-10-07T20:40:10.544Z,12.20
2018-10-07T20:42:39.074Z,12.20
2018-10-07T20:45:07.638Z,12.20
2018-10-07T20:47:36.127Z,12.20
2018-10-07T20:50:05.019Z,12.20
2018-10-07T20:52:33.686Z,12.10
2018-10-07T20:55:02.169Z,12.00
2018-10-07T20:57:30.681Z,11.90
2018-10-07T20:59:59.148Z,11.80
2018-10-07T21:02:27.712Z,11.80
2018-10-07T21:04:56.192Z,11.80
2018-10-07T21:07:24.780Z,11.70
2018-10-07T21:09:53.328Z,11.70
2018-10-07T21:12:21.871Z,11.80
2018-10-07T21:14:50.383Z,11.90
2018-10-07T21:17:18.893Z,11.90
2018-10-07T21:19:47.400Z,11.90
2018-10-07T21:22:15.932Z,11.90
2018-10-07T21:24:44.444Z,11.70
2018-10-07T21:27:12.942Z,11.60
2018-10-07T21:29:41.532Z,11.40
2018-10-07T21:32:10.033Z,11.20
2018-10-07T21:34:38.560Z,11.10
2018-10-07T21:37:07.100Z,10.90
2018-10-07T21:39:35.626Z,10.80
2018-10-07T21:42:04.196Z,10.80
2018-10-07T21:44:32.702Z,10.80
2018-10-07T21:47:01.320Z,10.80
2018-10-07T21:49:29.871Z,10.80
2018-10-07T21:51:58.347Z,10.70
2018-10-07T21:54:26.895Z,10.70
2018-10-07T21:56:55.454Z,10.60
2018-10-07T21:59:23.991Z,10.60
2018-10-07T22:01:52.572Z,10.60
2018-10-07T22:04:21.119Z,10.60
2018-10-07T22:06:49.714Z,10.60
2018-10-07T22:09:18.269Z,10.60
2018-10-07T22:11:46.797Z,10.60
2018-10-07T22:14:15.348Z,10.60
2018-10-07T22:16:43.848Z,10.60
2018-10-07T22:19:12.400Z,10.50
2018-10-07T22:21:40.908Z,10.50
2018-10-07T22:24:09.433Z,10.50
2018-10-07T22:26:38.027Z,10.40
2018-10-07T22:29:06.775Z,10.30
2018-10-07T22:31:35.348Z,10.30
2018-10-07T22:34:03.944Z,10.30
2018-10-07T22:36:32.484Z,10.30
2018-10-07T22:39:01.300Z,10.20
2018-10-07T22:41:29.837Z,10.20
2018-10-07T22:43:58.342Z,10.20
2018-10-07T22:46:26.874Z,10.10
2018-10-07T22:48:55.398Z,10.10
2018-10-07T22:51:23.925Z,10.10
2018-10-07T22:53:52.452Z,10.10
2018-10-07T22:56:20.961Z,10.20
2018-10-07T22:58:49.536Z,10.10
2018-10-07T23:01:18.068Z,10.20
2018-10-07T23:03:46.641Z,10.30
2018-10-07T23:06:15.127Z,10.20
2018-10-07T23:08:43.674Z,10.20
2018-10-07T23:11:12.216Z,10.20
2018-10-07T23:13:40.718Z,10.10
2018-10-07T23:16:09.311Z,10.00
2018-10-07T23:18:37.811Z,9.90
2018-10-07T23:21:06.374Z,9.90
2018-10-07T23:23:34.862Z,9.90
2018-10-07T23:26:03.440Z,9.80
2018-10-07T23:28:31.941Z,9.80
2018-10-07T23:31:00.463Z,9.80
2018-10-07T23:33:28.947Z,9.70
2018-10-07T23:35:57.516Z,9.70
2018-10-07T23:38:26.155Z,9.70
2018-10-07T23:40:56.911Z,9.70
2018-10-07T23:43:25.451Z,9.60
2018-10-07T23:45:54.061Z,9.50
2018-10-07T23:48:22.628Z,9.40
2018-10-07T23:50:51.149Z,9.40
2018-10-07T23:53:19.654Z,9.40
2018-10-07T23:55:48.212Z,9.40
2018-10-07T23:58:16.717Z,9.40
